sensor_id;sensor_type;location;lat;lon;timestamp;P1;durP1;ratioP1;P2;durP2;ratioP2
63945;SDS011;50122;56.330;43.838;2023-01-28T00:01:51;27.15;;;15.25;;
63945;SDS011;50122;56.330;43.838;2023-01-28T00:04:18;28.90;;;16.65;;
63945;SDS011;50122;56.330;43.838;2023-01-28T00:06:44;29.10;;;16.17;;
63945;SDS011;50122;56.330;43.838;2023-01-28T00:09:12;28.38;;;15.95;;
63945;SDS011;50122;56.330;43.838;2023-01-28T00:11:39;33.45;;;17.70;;
63945;SDS011;50122;56.330;43.838;2023-01-28T00:14:06;32.05;;;17.40;;
63945;SDS011;50122;56.330;43.838;2023-01-28T00:16:33;30.40;;;17.67;;
63945;SDS011;50122;56.330;43.838;2023-01-28T00:19:00;31.75;;;17.52;;
63945;SDS011;50122;56.330;43.838;2023-01-28T00:21:27;27.52;;;16.92;;
63945;SDS011;50122;56.330;43.838;2023-01-28T00:23:54;29.85;;;16.70;;
63945;SDS011;50122;56.330;43.838;2023-01-28T00:26:22;27.27;;;13.82;;
63945;SDS011;50122;56.330;43.838;2023-01-28T00:28:51;31.65;;;16.83;;
63945;SDS011;50122;56.330;43.838;2023-01-28T00:31:19;30.42;;;15.52;;
63945;SDS011;50122;56.330;43.838;2023-01-28T00:33:47;29.35;;;17.20;;
63945;SDS011;50122;56.330;43.838;2023-01-28T00:36:16;25.27;;;14.13;;
63945;SDS011;50122;56.330;43.838;2023-01-28T00:41:39;32.92;;;16.80;;
63945;SDS011;50122;56.330;43.838;2023-01-28T00:44:07;30.55;;;16.73;;
63945;SDS011;50122;56.330;43.838;2023-01-28T00:46:34;31.10;;;17.50;;
63945;SDS011;50122;56.330;43.838;2023-01-28T00:49:00;31.48;;;17.52;;
63945;SDS011;50122;56.330;43.838;2023-01-28T00:51:27;28.52;;;16.08;;
63945;SDS011;50122;56.330;43.838;2023-01-28T00:53:54;29.25;;;16.67;;
63945;SDS011;50122;56.330;43.838;2023-01-28T00:56:20;26.15;;;15.98;;
63945;SDS011;50122;56.330;43.838;2023-01-28T00:58:48;31.88;;;17.52;;
63945;SDS011;50122;56.330;43.838;2023-01-28T01:01:16;27.42;;;14.75;;
63945;SDS011;50122;56.330;43.838;2023-01-28T01:03:47;26.48;;;14.52;;
63945;SDS011;50122;56.330;43.838;2023-01-28T01:06:23;31.77;;;14.90;;
63945;SDS011;50122;56.330;43.838;2023-01-28T01:08:50;25.80;;;15.45;;
63945;SDS011;50122;56.330;43.838;2023-01-28T01:11:17;27.88;;;15.23;;
63945;SDS011;50122;56.330;43.838;2023-01-28T01:13:45;29.60;;;15.80;;
63945;SDS011;50122;56.330;43.838;2023-01-28T01:16:15;27.98;;;13.77;;
63945;SDS011;50122;56.330;43.838;2023-01-28T01:18:42;25.45;;;14.63;;
63945;SDS011;50122;56.330;43.838;2023-01-28T01:21:10;27.38;;;14.95;;
63945;SDS011;50122;56.330;43.838;2023-01-28T01:23:39;27.65;;;16.00;;
63945;SDS011;50122;56.330;43.838;2023-01-28T01:26:06;27.25;;;15.55;;
63945;SDS011;50122;56.330;43.838;2023-01-28T01:28:34;25.95;;;14.10;;
63945;SDS011;50122;56.330;43.838;2023-01-28T01:31:05;23.67;;;13.88;;
63945;SDS011;50122;56.330;43.838;2023-01-28T01:33:41;25.00;;;14.43;;
63945;SDS011;50122;56.330;43.838;2023-01-28T01:36:09;25.60;;;14.63;;
63945;SDS011;50122;56.330;43.838;2023-01-28T01:38:37;26.45;;;15.55;;
63945;SDS011;50122;56.330;43.838;2023-01-28T01:41:04;22.67;;;13.63;;
63945;SDS011;50122;56.330;43.838;2023-01-28T01:43:45;25.13;;;14.20;;
63945;SDS011;50122;56.330;43.838;2023-01-28T01:46:43;23.05;;;14.18;;
63945;SDS011;50122;56.330;43.838;2023-01-28T01:49:13;20.52;;;13.00;;
63945;SDS011;50122;56.330;43.838;2023-01-28T01:51:45;23.38;;;14.00;;
63945;SDS011;50122;56.330;43.838;2023-01-28T01:54:16;23.30;;;13.20;;
63945;SDS011;50122;56.330;43.838;2023-01-28T01:56:46;26.35;;;13.60;;
63945;SDS011;50122;56.330;43.838;2023-01-28T01:59:19;24.38;;;13.90;;
63945;SDS011;50122;56.330;43.838;2023-01-28T02:01:51;23.92;;;13.20;;
63945;SDS011;50122;56.330;43.838;2023-01-28T02:04:21;22.50;;;13.70;;
63945;SDS011;50122;56.330;43.838;2023-01-28T02:06:54;23.03;;;14.17;;
63945;SDS011;50122;56.330;43.838;2023-01-28T02:09:23;25.02;;;14.57;;
63945;SDS011;50122;56.330;43.838;2023-01-28T02:11:56;22.77;;;13.43;;
63945;SDS011;50122;56.330;43.838;2023-01-28T02:14:47;21.30;;;13.07;;
63945;SDS011;50122;56.330;43.838;2023-01-28T02:17:18;24.67;;;14.07;;
63945;SDS011;50122;56.330;43.838;2023-01-28T02:19:52;22.38;;;13.73;;
63945;SDS011;50122;56.330;43.838;2023-01-28T02:30:59;23.77;;;12.77;;
63945;SDS011;50122;56.330;43.838;2023-01-28T02:33:34;22.15;;;13.60;;
63945;SDS011;50122;56.330;43.838;2023-01-28T02:36:11;23.38;;;12.57;;
63945;SDS011;50122;56.330;43.838;2023-01-28T02:38:47;21.08;;;12.10;;
63945;SDS011;50122;56.330;43.838;2023-01-28T02:41:26;22.75;;;12.20;;
63945;SDS011;50122;56.330;43.838;2023-01-28T02:44:00;21.63;;;12.27;;
63945;SDS011;50122;56.330;43.838;2023-01-28T02:49:14;22.52;;;11.68;;
63945;SDS011;50122;56.330;43.838;2023-01-28T02:57:42;18.25;;;9.70;;
63945;SDS011;50122;56.330;43.838;2023-01-28T03:00:11;14.02;;;8.18;;
63945;SDS011;50122;56.330;43.838;2023-01-28T03:02:49;14.75;;;8.82;;
63945;SDS011;50122;56.330;43.838;2023-01-28T03:05:27;16.27;;;8.95;;
63945;SDS011;50122;56.330;43.838;2023-01-28T03:08:01;12.52;;;7.70;;
63945;SDS011;50122;56.330;43.838;2023-01-28T03:10:50;13.05;;;6.53;;
63945;SDS011;50122;56.330;43.838;2023-01-28T03:13:40;8.63;;;5.63;;
63945;SDS011;50122;56.330;43.838;2023-01-28T03:16:28;12.20;;;6.72;;
63945;SDS011;50122;56.330;43.838;2023-01-28T03:19:17;11.68;;;6.95;;
63945;SDS011;50122;56.330;43.838;2023-01-28T03:22:02;10.50;;;5.30;;
63945;SDS011;50122;56.330;43.838;2023-01-28T03:27:48;9.52;;;5.28;;
63945;SDS011;50122;56.330;43.838;2023-01-28T03:30:52;8.35;;;4.88;;
63945;SDS011;50122;56.330;43.838;2023-01-28T03:33:47;7.10;;;4.00;;
63945;SDS011;50122;56.330;43.838;2023-01-28T03:36:34;7.25;;;4.30;;
63945;SDS011;50122;56.330;43.838;2023-01-28T03:39:22;6.18;;;3.50;;
63945;SDS011;50122;56.330;43.838;2023-01-28T03:41:58;7.35;;;3.55;;
63945;SDS011;50122;56.330;43.838;2023-01-28T03:44:32;5.72;;;2.95;;
63945;SDS011;50122;56.330;43.838;2023-01-28T03:47:22;4.55;;;2.40;;
63945;SDS011;50122;56.330;43.838;2023-01-28T03:49:51;4.38;;;2.25;;
63945;SDS011;50122;56.330;43.838;2023-01-28T03:52:31;3.95;;;2.00;;
63945;SDS011;50122;56.330;43.838;2023-01-28T03:54:58;2.65;;;1.70;;
63945;SDS011;50122;56.330;43.838;2023-01-28T03:57:26;4.03;;;2.10;;
63945;SDS011;50122;56.330;43.838;2023-01-28T03:59:56;4.43;;;2.08;;
63945;SDS011;50122;56.330;43.838;2023-01-28T04:02:23;3.80;;;1.90;;
63945;SDS011;50122;56.330;43.838;2023-01-28T04:04:53;3.53;;;2.00;;
63945;SDS011;50122;56.330;43.838;2023-01-28T04:07:19;2.85;;;1.83;;
63945;SDS011;50122;56.330;43.838;2023-01-28T04:09:47;3.83;;;2.00;;
63945;SDS011;50122;56.330;43.838;2023-01-28T04:12:14;2.90;;;1.65;;
63945;SDS011;50122;56.330;43.838;2023-01-28T04:14:41;3.20;;;1.77;;
63945;SDS011;50122;56.330;43.838;2023-01-28T04:17:07;4.28;;;2.00;;
63945;SDS011;50122;56.330;43.838;2023-01-28T04:19:38;3.38;;;1.83;;
63945;SDS011;50122;56.330;43.838;2023-01-28T04:22:06;2.78;;;1.70;;
63945;SDS011;50122;56.330;43.838;2023-01-28T21:39:22;20.38;;;10.35;;
63945;SDS011;50122;56.330;43.838;2023-01-28T21:41:49;25.25;;;11.40;;
63945;SDS011;50122;56.330;43.838;2023-01-28T21:44:16;26.52;;;11.75;;
63945;SDS011;50122;56.330;43.838;2023-01-28T21:46:44;29.75;;;14.07;;
63945;SDS011;50122;56.330;43.838;2023-01-28T21:49:12;28.98;;;14.13;;
63945;SDS011;50122;56.330;43.838;2023-01-28T21:51:39;37.20;;;16.10;;
63945;SDS011;50122;56.330;43.838;2023-01-28T21:54:12;37.42;;;17.02;;
63945;SDS011;50122;56.330;43.838;2023-01-28T21:56:43;40.47;;;18.98;;
63945;SDS011;50122;56.330;43.838;2023-01-28T21:59:14;48.92;;;20.33;;
63945;SDS011;50122;56.330;43.838;2023-01-28T22:02:08;36.10;;;17.85;;
63945;SDS011;50122;56.330;43.838;2023-01-28T22:04:54;19.60;;;10.13;;
63945;SDS011;50122;56.330;43.838;2023-01-28T22:07:26;21.63;;;11.05;;
63945;SDS011;50122;56.330;43.838;2023-01-28T22:09:56;19.83;;;10.88;;
63945;SDS011;50122;56.330;43.838;2023-01-28T22:12:23;17.00;;;10.27;;
63945;SDS011;50122;56.330;43.838;2023-01-28T22:14:53;17.90;;;10.13;;
63945;SDS011;50122;56.330;43.838;2023-01-28T22:17:20;15.80;;;8.85;;
63945;SDS011;50122;56.330;43.838;2023-01-28T22:19:47;15.23;;;8.65;;
63945;SDS011;50122;56.330;43.838;2023-01-28T22:22:18;19.20;;;9.55;;
63945;SDS011;50122;56.330;43.838;2023-01-28T22:24:45;17.85;;;9.82;;
63945;SDS011;50122;56.330;43.838;2023-01-28T22:27:12;17.00;;;9.00;;
63945;SDS011;50122;56.330;43.838;2023-01-28T22:29:39;14.75;;;9.00;;
63945;SDS011;50122;56.330;43.838;2023-01-28T22:32:06;14.98;;;8.85;;
63945;SDS011;50122;56.330;43.838;2023-01-28T22:34:33;13.30;;;8.20;;
63945;SDS011;50122;56.330;43.838;2023-01-28T22:37:02;12.95;;;7.75;;
63945;SDS011;50122;56.330;43.838;2023-01-28T22:39:28;15.13;;;8.30;;
63945;SDS011;50122;56.330;43.838;2023-01-28T22:41:55;16.67;;;9.00;;
63945;SDS011;50122;56.330;43.838;2023-01-28T22:44:23;14.02;;;8.32;;
63945;SDS011;50122;56.330;43.838;2023-01-28T22:46:51;14.70;;;8.50;;
63945;SDS011;50122;56.330;43.838;2023-01-28T22:49:18;16.42;;;9.60;;
63945;SDS011;50122;56.330;43.838;2023-01-28T22:51:44;17.52;;;10.23;;
63945;SDS011;50122;56.330;43.838;2023-01-28T22:54:11;17.38;;;9.35;;
63945;SDS011;50122;56.330;43.838;2023-01-28T22:56:40;20.10;;;10.25;;
63945;SDS011;50122;56.330;43.838;2023-01-28T22:59:08;20.27;;;9.98;;
63945;SDS011;50122;56.330;43.838;2023-01-28T23:01:36;16.08;;;8.00;;
63945;SDS011;50122;56.330;43.838;2023-01-28T23:04:03;16.00;;;7.93;;
63945;SDS011;50122;56.330;43.838;2023-01-28T23:06:30;11.52;;;6.80;;
63945;SDS011;50122;56.330;43.838;2023-01-28T23:08:57;13.07;;;6.50;;
63945;SDS011;50122;56.330;43.838;2023-01-28T23:11:24;13.88;;;7.43;;
63945;SDS011;50122;56.330;43.838;2023-01-28T23:13:59;15.25;;;7.80;;
63945;SDS011;50122;56.330;43.838;2023-01-28T23:16:46;13.27;;;6.55;;
63945;SDS011;50122;56.330;43.838;2023-01-28T23:19:32;11.73;;;6.13;;
63945;SDS011;50122;56.330;43.838;2023-01-28T23:22:21;12.77;;;6.82;;
63945;SDS011;50122;56.330;43.838;2023-01-28T23:25:12;11.50;;;6.70;;
63945;SDS011;50122;56.330;43.838;2023-01-28T23:27:39;12.63;;;7.28;;
63945;SDS011;50122;56.330;43.838;2023-01-28T23:30:06;11.27;;;6.15;;
63945;SDS011;50122;56.330;43.838;2023-01-28T23:32:39;11.65;;;6.63;;
63945;SDS011;50122;56.330;43.838;2023-01-28T23:35:10;9.73;;;6.22;;
63945;SDS011;50122;56.330;43.838;2023-01-28T23:37:40;11.75;;;6.70;;
63945;SDS011;50122;56.330;43.838;2023-01-28T23:40:07;13.75;;;6.45;;
63945;SDS011;50122;56.330;43.838;2023-01-28T23:42:35;14.68;;;7.68;;
63945;SDS011;50122;56.330;43.838;2023-01-28T23:45:01;26.42;;;11.48;;
63945;SDS011;50122;56.330;43.838;2023-01-28T23:47:29;35.50;;;13.27;;
63945;SDS011;50122;56.330;43.838;2023-01-28T23:49:58;35.67;;;13.15;;
63945;SDS011;50122;56.330;43.838;2023-01-28T23:52:28;29.55;;;10.73;;
63945;SDS011;50122;56.330;43.838;2023-01-28T23:55:05;23.20;;;9.52;;
63945;SDS011;50122;56.330;43.838;2023-01-28T23:57:35;23.98;;;10.55;;
